sensor_id;sensor_type;location;lat;lon;timestamp;P1;durP1;ratioP1;P2;durP2;ratioP2
8361;SDS011;4218;48.326;14.304;2022-08-19T00:01:22;1.10;;;0.97;;
8361;SDS011;4218;48.326;14.304;2022-08-19T00:03:48;1.87;;;1.17;;
8361;SDS011;4218;48.326;14.304;2022-08-19T00:06:14;1.20;;;1.20;;
8361;SDS011;4218;48.326;14.304;2022-08-19T00:08:39;2.53;;;1.50;;
8361;SDS011;4218;48.326;14.304;2022-08-19T00:11:05;1.10;;;1.10;;
8361;SDS011;4218;48.326;14.304;2022-08-19T00:13:32;1.17;;;0.90;;
8361;SDS011;4218;48.326;14.304;2022-08-19T00:15:58;3.40;;;1.20;;
8361;SDS011;4218;48.326;14.304;2022-08-19T00:18:25;1.10;;;1.10;;
8361;SDS011;4218;48.326;14.304;2022-08-19T00:20:51;2.33;;;0.90;;
8361;SDS011;4218;48.326;14.304;2022-08-19T00:23:16;1.10;;;1.10;;
8361;SDS011;4218;48.326;14.304;2022-08-19T00:25:41;1.70;;;1.10;;
8361;SDS011;4218;48.326;14.304;2022-08-19T00:28:07;3.20;;;1.00;;
8361;SDS011;4218;48.326;14.304;2022-08-19T00:30:32;1.00;;;1.00;;
8361;SDS011;4218;48.326;14.304;2022-08-19T00:32:58;1.47;;;0.80;;
8361;SDS011;4218;48.326;14.304;2022-08-19T00:35:23;1.30;;;1.20;;
8361;SDS011;4218;48.326;14.304;2022-08-19T00:37:49;1.20;;;1.10;;
8361;SDS011;4218;48.326;14.304;2022-08-19T00:40:16;1.43;;;1.20;;
8361;SDS011;4218;48.326;14.304;2022-08-19T00:42:44;3.13;;;1.03;;
8361;SDS011;4218;48.326;14.304;2022-08-19T00:45:13;2.00;;;1.00;;
8361;SDS011;4218;48.326;14.304;2022-08-19T00:47:42;1.47;;;1.37;;
8361;SDS011;4218;48.326;14.304;2022-08-19T00:50:09;1.10;;;1.00;;
8361;SDS011;4218;48.326;14.304;2022-08-19T00:52:37;1.50;;;1.40;;
8361;SDS011;4218;48.326;14.304;2022-08-19T00:55:11;0.93;;;0.93;;
8361;SDS011;4218;48.326;14.304;2022-08-19T00:57:41;2.77;;;1.30;;
8361;SDS011;4218;48.326;14.304;2022-08-19T01:00:12;1.10;;;1.10;;
8361;SDS011;4218;48.326;14.304;2022-08-19T01:02:40;0.97;;;0.97;;
8361;SDS011;4218;48.326;14.304;2022-08-19T01:05:08;1.50;;;0.90;;
8361;SDS011;4218;48.326;14.304;2022-08-19T01:07:39;1.40;;;1.30;;
8361;SDS011;4218;48.326;14.304;2022-08-19T01:10:06;1.77;;;1.03;;
8361;SDS011;4218;48.326;14.304;2022-08-19T01:12:35;0.83;;;0.83;;
8361;SDS011;4218;48.326;14.304;2022-08-19T01:15:01;0.97;;;0.97;;
8361;SDS011;4218;48.326;14.304;2022-08-19T01:17:28;0.90;;;0.90;;
8361;SDS011;4218;48.326;14.304;2022-08-19T01:19:53;1.30;;;1.20;;
8361;SDS011;4218;48.326;14.304;2022-08-19T01:22:27;2.57;;;1.53;;
8361;SDS011;4218;48.326;14.304;2022-08-19T01:24:53;0.90;;;0.90;;
8361;SDS011;4218;48.326;14.304;2022-08-19T01:27:18;1.20;;;1.10;;
8361;SDS011;4218;48.326;14.304;2022-08-19T01:29:44;1.00;;;0.90;;
8361;SDS011;4218;48.326;14.304;2022-08-19T01:32:14;1.10;;;1.10;;
8361;SDS011;4218;48.326;14.304;2022-08-19T01:34:41;1.90;;;1.70;;
8361;SDS011;4218;48.326;14.304;2022-08-19T01:37:10;0.97;;;0.97;;
8361;SDS011;4218;48.326;14.304;2022-08-19T01:39:37;1.53;;;1.30;;
8361;SDS011;4218;48.326;14.304;2022-08-19T01:42:04;1.63;;;1.40;;
8361;SDS011;4218;48.326;14.304;2022-08-19T01:44:31;2.00;;;1.50;;
8361;SDS011;4218;48.326;14.304;2022-08-19T01:46:56;1.33;;;1.20;;
8361;SDS011;4218;48.326;14.304;2022-08-19T01:49:23;1.40;;;1.30;;
8361;SDS011;4218;48.326;14.304;2022-08-19T01:51:50;1.73;;;1.37;;
8361;SDS011;4218;48.326;14.304;2022-08-19T01:54:17;1.00;;;1.00;;
8361;SDS011;4218;48.326;14.304;2022-08-19T01:56:43;1.20;;;1.10;;
8361;SDS011;4218;48.326;14.304;2022-08-19T01:59:12;1.27;;;1.17;;
8361;SDS011;4218;48.326;14.304;2022-08-19T02:01:41;1.33;;;1.20;;
8361;SDS011;4218;48.326;14.304;2022-08-19T02:04:07;1.17;;;1.10;;
8361;SDS011;4218;48.326;14.304;2022-08-19T02:06:32;1.73;;;1.60;;
8361;SDS011;4218;48.326;14.304;2022-08-19T02:08:58;2.73;;;1.53;;
8361;SDS011;4218;48.326;14.304;2022-08-19T02:11:28;3.07;;;1.20;;
8361;SDS011;4218;48.326;14.304;2022-08-19T02:13:58;1.67;;;1.20;;
8361;SDS011;4218;48.326;14.304;2022-08-19T02:16:26;2.27;;;1.43;;
8361;SDS011;4218;48.326;14.304;2022-08-19T02:18:52;1.47;;;1.33;;
8361;SDS011;4218;48.326;14.304;2022-08-19T02:21:18;1.80;;;1.67;;
8361;SDS011;4218;48.326;14.304;2022-08-19T02:23:44;1.30;;;1.20;;
8361;SDS011;4218;48.326;14.304;2022-08-19T02:26:11;1.40;;;1.30;;
8361;SDS011;4218;48.326;14.304;2022-08-19T02:28:37;1.53;;;1.43;;
8361;SDS011;4218;48.326;14.304;2022-08-19T02:31:03;1.50;;;1.40;;
8361;SDS011;4218;48.326;14.304;2022-08-19T02:33:29;2.30;;;1.30;;
8361;SDS011;4218;48.326;14.304;2022-08-19T02:35:54;1.87;;;1.40;;
8361;SDS011;4218;48.326;14.304;2022-08-19T02:38:20;2.40;;;2.20;;
8361;SDS011;4218;48.326;14.304;2022-08-19T02:40:52;8.13;;;1.67;;
8361;SDS011;4218;48.326;14.304;2022-08-19T02:43:20;1.27;;;1.27;;
8361;SDS011;4218;48.326;14.304;2022-08-19T02:45:46;2.10;;;1.57;;
8361;SDS011;4218;48.326;14.304;2022-08-19T02:48:13;1.17;;;1.07;;
8361;SDS011;4218;48.326;14.304;2022-08-19T02:50:42;2.03;;;1.27;;
8361;SDS011;4218;48.326;14.304;2022-08-19T02:53:07;1.97;;;1.67;;
8361;SDS011;4218;48.326;14.304;2022-08-19T02:55:33;1.47;;;1.37;;
8361;SDS011;4218;48.326;14.304;2022-08-19T02:57:59;2.17;;;1.93;;
8361;SDS011;4218;48.326;14.304;2022-08-19T03:00:25;4.77;;;1.70;;
8361;SDS011;4218;48.326;14.304;2022-08-19T03:02:51;2.73;;;1.77;;
8361;SDS011;4218;48.326;14.304;2022-08-19T03:05:17;1.63;;;1.53;;
8361;SDS011;4218;48.326;14.304;2022-08-19T03:07:43;1.70;;;1.60;;
8361;SDS011;4218;48.326;14.304;2022-08-19T03:10:08;4.20;;;1.70;;
8361;SDS011;4218;48.326;14.304;2022-08-19T03:12:37;2.33;;;1.63;;
8361;SDS011;4218;48.326;14.304;2022-08-19T03:15:04;2.23;;;1.60;;
8361;SDS011;4218;48.326;14.304;2022-08-19T03:17:32;1.60;;;1.50;;
8361;SDS011;4218;48.326;14.304;2022-08-19T03:19:58;2.30;;;1.70;;
8361;SDS011;4218;48.326;14.304;2022-08-19T03:22:23;1.60;;;1.50;;
8361;SDS011;4218;48.326;14.304;2022-08-19T03:24:50;2.37;;;1.80;;
8361;SDS011;4218;48.326;14.304;2022-08-19T03:27:15;1.53;;;1.43;;
8361;SDS011;4218;48.326;14.304;2022-08-19T03:29:42;1.20;;;1.20;;
8361;SDS011;4218;48.326;14.304;2022-08-19T03:32:08;1.60;;;1.50;;
8361;SDS011;4218;48.326;14.304;2022-08-19T03:34:35;2.73;;;1.73;;
8361;SDS011;4218;48.326;14.304;2022-08-19T03:37:06;2.23;;;1.63;;
8361;SDS011;4218;48.326;14.304;2022-08-19T03:39:35;1.50;;;1.40;;
8361;SDS011;4218;48.326;14.304;2022-08-19T03:42:02;2.27;;;1.27;;
8361;SDS011;4218;48.326;14.304;2022-08-19T03:44:28;2.37;;;1.70;;
8361;SDS011;4218;48.326;14.304;2022-08-19T03:46:55;1.60;;;1.50;;
8361;SDS011;4218;48.326;14.304;2022-08-19T03:49:23;1.70;;;1.60;;
8361;SDS011;4218;48.326;14.304;2022-08-19T03:51:50;2.60;;;1.60;;
8361;SDS011;4218;48.326;14.304;2022-08-19T03:54:17;1.27;;;1.20;;
8361;SDS011;4218;48.326;14.304;2022-08-19T03:56:45;2.13;;;1.43;;
8361;SDS011;4218;48.326;14.304;2022-08-19T03:59:14;1.17;;;1.17;;
8361;SDS011;4218;48.326;14.304;2022-08-19T04:01:42;1.53;;;1.43;;
8361;SDS011;4218;48.326;14.304;2022-08-19T04:04:08;3.13;;;1.43;;
8361;SDS011;4218;48.326;14.304;2022-08-19T04:06:36;2.70;;;1.60;;
8361;SDS011;4218;48.326;14.304;2022-08-19T04:09:04;2.13;;;2.03;;
8361;SDS011;4218;48.326;14.304;2022-08-19T04:11:33;1.60;;;1.50;;
8361;SDS011;4218;48.326;14.304;2022-08-19T04:14:04;1.57;;;1.40;;
8361;SDS011;4218;48.326;14.304;2022-08-19T04:16:30;2.17;;;1.30;;
8361;SDS011;4218;48.326;14.304;2022-08-19T04:18:56;4.67;;;1.67;;
8361;SDS011;4218;48.326;14.304;2022-08-19T04:21:25;1.30;;;1.27;;
8361;SDS011;4218;48.326;14.304;2022-08-19T04:23:52;1.77;;;1.67;;
8361;SDS011;4218;48.326;14.304;2022-08-19T04:26:19;1.47;;;1.37;;
8361;SDS011;4218;48.326;14.304;2022-08-19T04:28:48;1.80;;;1.70;;
8361;SDS011;4218;48.326;14.304;2022-08-19T04:31:18;3.43;;;1.40;;
8361;SDS011;4218;48.326;14.304;2022-08-19T04:33:45;3.50;;;2.03;;
8361;SDS011;4218;48.326;14.304;2022-08-19T04:36:18;2.23;;;2.13;;
8361;SDS011;4218;48.326;14.304;2022-08-19T04:38:47;1.90;;;1.80;;
8361;SDS011;4218;48.326;14.304;2022-08-19T04:41:13;3.83;;;2.13;;
8361;SDS011;4218;48.326;14.304;2022-08-19T04:43:57;2.20;;;2.00;;
8361;SDS011;4218;48.326;14.304;2022-08-19T04:46:23;2.60;;;2.07;;
8361;SDS011;4218;48.326;14.304;2022-08-19T04:48:48;3.07;;;2.00;;
8361;SDS011;4218;48.326;14.304;2022-08-19T04:51:14;1.63;;;1.57;;
8361;SDS011;4218;48.326;14.304;2022-08-19T04:53:40;1.87;;;1.77;;
8361;SDS011;4218;48.326;14.304;2022-08-19T04:56:07;3.17;;;1.53;;
8361;SDS011;4218;48.326;14.304;2022-08-19T04:58:35;1.40;;;1.30;;
8361;SDS011;4218;48.326;14.304;2022-08-19T05:01:02;2.00;;;1.57;;
8361;SDS011;4218;48.326;14.304;2022-08-19T05:03:27;1.60;;;1.50;;
8361;SDS011;4218;48.326;14.304;2022-08-19T05:05:58;1.60;;;1.30;;
8361;SDS011;4218;48.326;14.304;2022-08-19T05:08:28;2.53;;;2.30;;
8361;SDS011;4218;48.326;14.304;2022-08-19T05:10:55;1.90;;;1.80;;
8361;SDS011;4218;48.326;14.304;2022-08-19T05:13:22;2.20;;;2.00;;
8361;SDS011;4218;48.326;14.304;2022-08-19T05:15:57;4.00;;;2.20;;
8361;SDS011;4218;48.326;14.304;2022-08-19T05:18:23;2.37;;;2.27;;
8361;SDS011;4218;48.326;14.304;2022-08-19T05:21:09;3.20;;;2.33;;
8361;SDS011;4218;48.326;14.304;2022-08-19T05:23:58;3.60;;;3.30;;
8361;SDS011;4218;48.326;14.304;2022-08-19T05:26:25;2.90;;;2.70;;
8361;SDS011;4218;48.326;14.304;2022-08-19T05:28:53;3.33;;;2.23;;
8361;SDS011;4218;48.326;14.304;2022-08-19T05:31:19;2.23;;;2.13;;
8361;SDS011;4218;48.326;14.304;2022-08-19T05:33:45;3.00;;;2.50;;
8361;SDS011;4218;48.326;14.304;2022-08-19T05:36:11;3.40;;;3.10;;
8361;SDS011;4218;48.326;14.304;2022-08-19T05:38:36;5.10;;;3.47;;
8361;SDS011;4218;48.326;14.304;2022-08-19T05:41:06;4.93;;;3.23;;
8361;SDS011;4218;48.326;14.304;2022-08-19T05:43:35;4.03;;;3.63;;
8361;SDS011;4218;48.326;14.304;2022-08-19T05:46:02;5.10;;;4.00;;
8361;SDS011;4218;48.326;14.304;2022-08-19T05:48:29;5.70;;;4.40;;
8361;SDS011;4218;48.326;14.304;2022-08-19T05:50:55;5.23;;;4.43;;
8361;SDS011;4218;48.326;14.304;2022-08-19T05:53:21;4.90;;;3.93;;
8361;SDS011;4218;48.326;14.304;2022-08-19T05:55:47;6.80;;;3.63;;
8361;SDS011;4218;48.326;14.304;2022-08-19T05:58:12;7.83;;;4.43;;
8361;SDS011;4218;48.326;14.304;2022-08-19T06:00:38;6.67;;;4.50;;
8361;SDS011;4218;48.326;14.304;2022-08-19T06:03:05;8.60;;;4.53;;
8361;SDS011;4218;48.326;14.304;2022-08-19T06:05:30;5.90;;;5.30;;
8361;SDS011;4218;48.326;14.304;2022-08-19T06:07:56;5.57;;;4.90;;
8361;SDS011;4218;48.326;14.304;2022-08-19T06:10:24;5.33;;;4.73;;
8361;SDS011;4218;48.326;14.304;2022-08-19T06:12:51;6.23;;;5.27;;
8361;SDS011;4218;48.326;14.304;2022-08-19T06:15:16;6.43;;;5.83;;
8361;SDS011;4218;48.326;14.304;2022-08-19T06:17:42;7.77;;;6.07;;
8361;SDS011;4218;48.326;14.304;2022-08-19T06:20:10;6.80;;;5.40;;
8361;SDS011;4218;48.326;14.304;2022-08-19T06:22:43;8.67;;;6.47;;
8361;SDS011;4218;48.326;14.304;2022-08-19T06:25:11;6.67;;;5.00;;
8361;SDS011;4218;48.326;14.304;2022-08-19T06:27:38;7.57;;;5.90;;
8361;SDS011;4218;48.326;14.304;2022-08-19T06:30:04;7.13;;;5.77;;
8361;SDS011;4218;48.326;14.304;2022-08-19T06:32:29;7.13;;;5.63;;
8361;SDS011;4218;48.326;14.304;2022-08-19T06:34:55;6.23;;;5.17;;
8361;SDS011;4218;48.326;14.304;2022-08-19T06:37:21;7.90;;;5.50;;
8361;SDS011;4218;48.326;14.304;2022-08-19T06:39:47;10.10;;;6.43;;
8361;SDS011;4218;48.326;14.304;2022-08-19T06:42:13;11.57;;;7.20;;
8361;SDS011;4218;48.326;14.304;2022-08-19T06:44:41;7.87;;;6.83;;
8361;SDS011;4218;48.326;14.304;2022-08-19T06:47:09;7.43;;;6.67;;
8361;SDS011;4218;48.326;14.304;2022-08-19T06:49:39;8.77;;;5.63;;
8361;SDS011;4218;48.326;14.304;2022-08-19T06:52:05;12.30;;;9.00;;
8361;SDS011;4218;48.326;14.304;2022-08-19T06:54:31;13.07;;;8.40;;
8361;SDS011;4218;48.326;14.304;2022-08-19T06:56:57;12.10;;;9.30;;
8361;SDS011;4218;48.326;14.304;2022-08-19T06:59:24;9.87;;;8.30;;
8361;SDS011;4218;48.326;14.304;2022-08-19T07:01:54;13.90;;;6.93;;
8361;SDS011;4218;48.326;14.304;2022-08-19T07:04:21;8.30;;;6.00;;
8361;SDS011;4218;48.326;14.304;2022-08-19T07:06:49;11.80;;;7.40;;
8361;SDS011;4218;48.326;14.304;2022-08-19T07:09:21;9.53;;;6.13;;
8361;SDS011;4218;48.326;14.304;2022-08-19T07:11:47;8.03;;;6.07;;
8361;SDS011;4218;48.326;14.304;2022-08-19T07:14:19;5.77;;;4.77;;
8361;SDS011;4218;48.326;14.304;2022-08-19T07:16:47;4.87;;;4.47;;
8361;SDS011;4218;48.326;14.304;2022-08-19T07:19:14;5.33;;;4.43;;
8361;SDS011;4218;48.326;14.304;2022-08-19T07:21:41;7.00;;;4.80;;
8361;SDS011;4218;48.326;14.304;2022-08-19T07:24:08;5.03;;;4.63;;
8361;SDS011;4218;48.326;14.304;2022-08-19T07:26:37;8.50;;;5.23;;
8361;SDS011;4218;48.326;14.304;2022-08-19T07:29:05;6.17;;;4.57;;
8361;SDS011;4218;48.326;14.304;2022-08-19T07:31:31;6.40;;;5.80;;
8361;SDS011;4218;48.326;14.304;2022-08-19T07:34:02;7.60;;;5.13;;
8361;SDS011;4218;48.326;14.304;2022-08-19T07:36:32;5.03;;;4.53;;
8361;SDS011;4218;48.326;14.304;2022-08-19T07:39:00;5.37;;;4.60;;
8361;SDS011;4218;48.326;14.304;2022-08-19T07:41:29;7.07;;;5.37;;
8361;SDS011;4218;48.326;14.304;2022-08-19T07:43:58;9.73;;;5.90;;
8361;SDS011;4218;48.326;14.304;2022-08-19T07:46:29;5.80;;;5.30;;
8361;SDS011;4218;48.326;14.304;2022-08-19T07:48:56;9.87;;;5.53;;
8361;SDS011;4218;48.326;14.304;2022-08-19T07:51:21;7.40;;;5.10;;
8361;SDS011;4218;48.326;14.304;2022-08-19T07:53:47;6.60;;;6.00;;
8361;SDS011;4218;48.326;14.304;2022-08-19T07:56:16;7.13;;;5.40;;
8361;SDS011;4218;48.326;14.304;2022-08-19T07:58:44;11.10;;;6.53;;
8361;SDS011;4218;48.326;14.304;2022-08-19T08:01:12;10.23;;;6.93;;
8361;SDS011;4218;48.326;14.304;2022-08-19T08:03:41;9.33;;;6.57;;
8361;SDS011;4218;48.326;14.304;2022-08-19T08:06:26;11.87;;;6.17;;
8361;SDS011;4218;48.326;14.304;2022-08-19T08:09:10;9.53;;;7.93;;
8361;SDS011;4218;48.326;14.304;2022-08-19T08:11:41;8.00;;;6.63;;
8361;SDS011;4218;48.326;14.304;2022-08-19T08:14:14;7.40;;;5.53;;
8361;SDS011;4218;48.326;14.304;2022-08-19T08:16:43;9.50;;;6.40;;
8361;SDS011;4218;48.326;14.304;2022-08-19T08:19:10;10.57;;;6.90;;
8361;SDS011;4218;48.326;14.304;2022-08-19T08:21:36;7.73;;;6.93;;
8361;SDS011;4218;48.326;14.304;2022-08-19T08:24:02;6.97;;;6.23;;
8361;SDS011;4218;48.326;14.304;2022-08-19T08:26:28;7.53;;;6.73;;
8361;SDS011;4218;48.326;14.304;2022-08-19T08:28:53;7.87;;;6.33;;
8361;SDS011;4218;48.326;14.304;2022-08-19T08:31:19;8.77;;;6.43;;
8361;SDS011;4218;48.326;14.304;2022-08-19T08:33:44;7.00;;;5.97;;
8361;SDS011;4218;48.326;14.304;2022-08-19T08:36:11;7.67;;;6.90;;
8361;SDS011;4218;48.326;14.304;2022-08-19T08:38:39;8.43;;;7.30;;
8361;SDS011;4218;48.326;14.304;2022-08-19T08:41:09;8.37;;;7.33;;
8361;SDS011;4218;48.326;14.304;2022-08-19T08:43:45;8.57;;;6.97;;
8361;SDS011;4218;48.326;14.304;2022-08-19T08:46:17;11.77;;;7.50;;
8361;SDS011;4218;48.326;14.304;2022-08-19T08:51:26;8.50;;;6.87;;
8361;SDS011;4218;48.326;14.304;2022-08-19T08:54:00;8.43;;;6.60;;
8361;SDS011;4218;48.326;14.304;2022-08-19T08:56:29;8.40;;;7.23;;
8361;SDS011;4218;48.326;14.304;2022-08-19T08:59:03;10.20;;;8.87;;
8361;SDS011;4218;48.326;14.304;2022-08-19T09:01:34;8.43;;;7.63;;
8361;SDS011;4218;48.326;14.304;2022-08-19T09:04:02;12.17;;;8.27;;
8361;SDS011;4218;48.326;14.304;2022-08-19T09:09:09;11.70;;;8.77;;
8361;SDS011;4218;48.326;14.304;2022-08-19T09:14:46;7.77;;;6.60;;
8361;SDS011;4218;48.326;14.304;2022-08-19T09:17:16;10.33;;;8.50;;
8361;SDS011;4218;48.326;14.304;2022-08-19T09:22:21;11.90;;;8.80;;
8361;SDS011;4218;48.326;14.304;2022-08-19T09:24:48;10.20;;;8.83;;
8361;SDS011;4218;48.326;14.304;2022-08-19T09:27:18;10.93;;;9.00;;
8361;SDS011;4218;48.326;14.304;2022-08-19T09:29:51;9.33;;;7.97;;
8361;SDS011;4218;48.326;14.304;2022-08-19T09:32:18;11.00;;;8.87;;
8361;SDS011;4218;48.326;14.304;2022-08-19T09:34:49;8.80;;;7.77;;
8361;SDS011;4218;48.326;14.304;2022-08-19T09:37:19;8.97;;;7.53;;
8361;SDS011;4218;48.326;14.304;2022-08-19T09:39:46;10.43;;;7.27;;
8361;SDS011;4218;48.326;14.304;2022-08-19T09:42:12;9.13;;;7.70;;
8361;SDS011;4218;48.326;14.304;2022-08-19T09:44:39;10.17;;;7.83;;
8361;SDS011;4218;48.326;14.304;2022-08-19T09:47:05;8.57;;;7.67;;
8361;SDS011;4218;48.326;14.304;2022-08-19T09:49:32;8.03;;;6.93;;
8361;SDS011;4218;48.326;14.304;2022-08-19T09:51:58;9.17;;;7.23;;
8361;SDS011;4218;48.326;14.304;2022-08-19T09:54:24;10.20;;;7.10;;
8361;SDS011;4218;48.326;14.304;2022-08-19T09:56:50;8.10;;;7.20;;
8361;SDS011;4218;48.326;14.304;2022-08-19T09:59:15;7.93;;;7.07;;
8361;SDS011;4218;48.326;14.304;2022-08-19T10:01:41;10.50;;;7.63;;
8361;SDS011;4218;48.326;14.304;2022-08-19T10:04:07;8.93;;;7.90;;
8361;SDS011;4218;48.326;14.304;2022-08-19T10:06:36;8.63;;;7.33;;
8361;SDS011;4218;48.326;14.304;2022-08-19T10:09:07;12.13;;;9.03;;
8361;SDS011;4218;48.326;14.304;2022-08-19T10:11:36;8.03;;;7.23;;
8361;SDS011;4218;48.326;14.304;2022-08-19T10:14:05;11.20;;;7.93;;
8361;SDS011;4218;48.326;14.304;2022-08-19T10:16:31;8.13;;;7.20;;
8361;SDS011;4218;48.326;14.304;2022-08-19T10:18:57;7.47;;;6.77;;
8361;SDS011;4218;48.326;14.304;2022-08-19T10:21:24;7.97;;;6.83;;
8361;SDS011;4218;48.326;14.304;2022-08-19T10:23:53;9.27;;;7.80;;
8361;SDS011;4218;48.326;14.304;2022-08-19T10:26:23;8.53;;;6.80;;
8361;SDS011;4218;48.326;14.304;2022-08-19T10:28:50;7.50;;;6.50;;
8361;SDS011;4218;48.326;14.304;2022-08-19T10:31:21;6.32;;;5.72;;
8361;SDS011;4218;48.326;14.304;2022-08-19T10:33:49;8.17;;;6.57;;
8361;SDS011;4218;48.326;14.304;2022-08-19T10:36:24;7.13;;;6.07;;
8361;SDS011;4218;48.326;14.304;2022-08-19T10:38:52;7.20;;;5.63;;
8361;SDS011;4218;48.326;14.304;2022-08-19T10:41:24;6.47;;;5.88;;
8361;SDS011;4218;48.326;14.304;2022-08-19T10:43:52;6.82;;;6.13;;
8361;SDS011;4218;48.326;14.304;2022-08-19T10:46:20;8.50;;;5.97;;
8361;SDS011;4218;48.326;14.304;2022-08-19T10:48:48;6.35;;;5.75;;
8361;SDS011;4218;48.326;14.304;2022-08-19T10:51:46;6.73;;;5.73;;
8361;SDS011;4218;48.326;14.304;2022-08-19T10:55:05;8.68;;;6.15;;
8361;SDS011;4218;48.326;14.304;2022-08-19T10:58:22;6.13;;;5.35;;
8361;SDS011;4218;48.326;14.304;2022-08-19T11:00:51;7.22;;;5.57;;
8361;SDS011;4218;48.326;14.304;2022-08-19T11:03:51;6.38;;;5.75;;
8361;SDS011;4218;48.326;14.304;2022-08-19T11:06:33;8.60;;;6.00;;
8361;SDS011;4218;48.326;14.304;2022-08-19T11:09:00;6.47;;;5.88;;
8361;SDS011;4218;48.326;14.304;2022-08-19T11:11:25;5.20;;;4.80;;
8361;SDS011;4218;48.326;14.304;2022-08-19T11:13:51;5.70;;;5.22;;
8361;SDS011;4218;48.326;14.304;2022-08-19T11:16:22;4.88;;;4.47;;
8361;SDS011;4218;48.326;14.304;2022-08-19T11:18:56;5.18;;;4.68;;
8361;SDS011;4218;48.326;14.304;2022-08-19T11:21:27;4.60;;;4.30;;
8361;SDS011;4218;48.326;14.304;2022-08-19T11:23:58;4.20;;;3.67;;
8361;SDS011;4218;48.326;14.304;2022-08-19T11:26:25;4.78;;;4.32;;
8361;SDS011;4218;48.326;14.304;2022-08-19T11:28:52;4.25;;;3.95;;
8361;SDS011;4218;48.326;14.304;2022-08-19T11:31:22;4.43;;;4.05;;
8361;SDS011;4218;48.326;14.304;2022-08-19T11:33:55;4.93;;;4.38;;
8361;SDS011;4218;48.326;14.304;2022-08-19T11:36:23;4.50;;;4.10;;
8361;SDS011;4218;48.326;14.304;2022-08-19T11:38:50;4.70;;;4.28;;
8361;SDS011;4218;48.326;14.304;2022-08-19T11:41:18;4.57;;;4.18;;
8361;SDS011;4218;48.326;14.304;2022-08-19T11:43:49;5.32;;;3.75;;
8361;SDS011;4218;48.326;14.304;2022-08-19T11:46:41;4.82;;;4.30;;
8361;SDS011;4218;48.326;14.304;2022-08-19T11:49:14;5.32;;;4.78;;
8361;SDS011;4218;48.326;14.304;2022-08-19T11:51:49;4.82;;;4.32;;
8361;SDS011;4218;48.326;14.304;2022-08-19T11:54:23;4.22;;;3.92;;
8361;SDS011;4218;48.326;14.304;2022-08-19T11:56:51;4.22;;;3.85;;
8361;SDS011;4218;48.326;14.304;2022-08-19T11:59:26;4.18;;;3.78;;
8361;SDS011;4218;48.326;14.304;2022-08-19T12:01:59;5.85;;;4.13;;
8361;SDS011;4218;48.326;14.304;2022-08-19T12:04:44;5.65;;;4.07;;
8361;SDS011;4218;48.326;14.304;2022-08-19T12:07:16;4.72;;;4.32;;
8361;SDS011;4218;48.326;14.304;2022-08-19T12:09:41;4.55;;;4.15;;
8361;SDS011;4218;48.326;14.304;2022-08-19T12:12:07;4.15;;;3.75;;
8361;SDS011;4218;48.326;14.304;2022-08-19T12:14:41;3.92;;;3.63;;
8361;SDS011;4218;48.326;14.304;2022-08-19T12:17:12;5.15;;;4.28;;
8361;SDS011;4218;48.326;14.304;2022-08-19T12:19:58;5.60;;;4.10;;
8361;SDS011;4218;48.326;14.304;2022-08-19T12:22:36;4.00;;;3.70;;
8361;SDS011;4218;48.326;14.304;2022-08-19T12:25:11;4.32;;;3.65;;
8361;SDS011;4218;48.326;14.304;2022-08-19T12:27:52;6.30;;;4.15;;
8361;SDS011;4218;48.326;14.304;2022-08-19T12:30:26;6.72;;;5.80;;
8361;SDS011;4218;48.326;14.304;2022-08-19T12:41:41;5.75;;;5.25;;
8361;SDS011;4218;48.326;14.304;2022-08-19T12:44:21;8.25;;;6.95;;
8361;SDS011;4218;48.326;14.304;2022-08-19T12:46:58;6.35;;;5.68;;
8361;SDS011;4218;48.326;14.304;2022-08-19T12:49:34;5.65;;;4.97;;
8361;SDS011;4218;48.326;14.304;2022-08-19T12:52:17;4.78;;;4.25;;
8361;SDS011;4218;48.326;14.304;2022-08-19T12:58:35;6.43;;;5.72;;
8361;SDS011;4218;48.326;14.304;2022-08-19T13:01:10;7.63;;;6.03;;
8361;SDS011;4218;48.326;14.304;2022-08-19T13:03:39;5.45;;;4.95;;
8361;SDS011;4218;48.326;14.304;2022-08-19T13:06:05;8.27;;;5.30;;
8361;SDS011;4218;48.326;14.304;2022-08-19T13:08:31;7.07;;;5.57;;
8361;SDS011;4218;48.326;14.304;2022-08-19T13:10:57;6.20;;;4.32;;
8361;SDS011;4218;48.326;14.304;2022-08-19T13:13:23;6.05;;;4.40;;
8361;SDS011;4218;48.326;14.304;2022-08-19T13:15:50;5.63;;;4.80;;
8361;SDS011;4218;48.326;14.304;2022-08-19T13:18:15;5.13;;;4.63;;
8361;SDS011;4218;48.326;14.304;2022-08-19T13:20:41;5.28;;;4.82;;
8361;SDS011;4218;48.326;14.304;2022-08-19T13:23:07;4.57;;;4.28;;
8361;SDS011;4218;48.326;14.304;2022-08-19T13:25:33;5.40;;;4.90;;
8361;SDS011;4218;48.326;14.304;2022-08-19T13:27:59;6.15;;;4.40;;
8361;SDS011;4218;48.326;14.304;2022-08-19T13:30:24;4.93;;;4.43;;
8361;SDS011;4218;48.326;14.304;2022-08-19T13:33:08;5.20;;;4.70;;
8361;SDS011;4218;48.326;14.304;2022-08-19T13:38:12;4.85;;;4.30;;
8361;SDS011;4218;48.326;14.304;2022-08-19T13:40:39;6.72;;;4.10;;
8361;SDS011;4218;48.326;14.304;2022-08-19T13:43:05;4.57;;;4.18;;
8361;SDS011;4218;48.326;14.304;2022-08-19T13:45:32;4.63;;;4.22;;
8361;SDS011;4218;48.326;14.304;2022-08-19T13:47:59;4.53;;;4.15;;
8361;SDS011;4218;48.326;14.304;2022-08-19T13:50:26;4.47;;;4.18;;
8361;SDS011;4218;48.326;14.304;2022-08-19T13:52:53;4.03;;;3.72;;
8361;SDS011;4218;48.326;14.304;2022-08-19T13:55:20;3.80;;;3.50;;
8361;SDS011;4218;48.326;14.304;2022-08-19T13:57:49;3.30;;;2.88;;
8361;SDS011;4218;48.326;14.304;2022-08-19T14:00:18;3.58;;;3.28;;
8361;SDS011;4218;48.326;14.304;2022-08-19T14:02:45;3.70;;;3.40;;
8361;SDS011;4218;48.326;14.304;2022-08-19T14:05:12;3.63;;;3.38;;
8361;SDS011;4218;48.326;14.304;2022-08-19T14:07:39;4.30;;;3.90;;
8361;SDS011;4218;48.326;14.304;2022-08-19T14:10:07;4.57;;;4.18;;
8361;SDS011;4218;48.326;14.304;2022-08-19T14:12:34;3.63;;;3.33;;
8361;SDS011;4218;48.326;14.304;2022-08-19T14:15:00;3.78;;;3.58;;
8361;SDS011;4218;48.326;14.304;2022-08-19T14:17:27;4.13;;;3.83;;
8361;SDS011;4218;48.326;14.304;2022-08-19T14:20:00;3.83;;;3.53;;
8361;SDS011;4218;48.326;14.304;2022-08-19T14:22:37;4.38;;;3.97;;
8361;SDS011;4218;48.326;14.304;2022-08-19T14:25:05;4.15;;;3.75;;
8361;SDS011;4218;48.326;14.304;2022-08-19T14:27:33;4.13;;;3.72;;
8361;SDS011;4218;48.326;14.304;2022-08-19T14:30:04;5.15;;;3.92;;
8361;SDS011;4218;48.326;14.304;2022-08-19T14:32:31;3.85;;;3.53;;
8361;SDS011;4218;48.326;14.304;2022-08-19T14:34:57;5.72;;;4.35;;
8361;SDS011;4218;48.326;14.304;2022-08-19T14:37:22;3.60;;;3.30;;
8361;SDS011;4218;48.326;14.304;2022-08-19T14:39:48;4.50;;;4.10;;
8361;SDS011;4218;48.326;14.304;2022-08-19T14:42:13;4.60;;;3.60;;
8361;SDS011;4218;48.326;14.304;2022-08-19T14:44:39;4.53;;;3.45;;
8361;SDS011;4218;48.326;14.304;2022-08-19T14:47:05;4.47;;;4.05;;
8361;SDS011;4218;48.326;14.304;2022-08-19T14:49:32;3.67;;;3.38;;
8361;SDS011;4218;48.326;14.304;2022-08-19T14:51:58;3.30;;;3.00;;
8361;SDS011;4218;48.326;14.304;2022-08-19T14:54:23;2.83;;;2.63;;
8361;SDS011;4218;48.326;14.304;2022-08-19T14:56:49;3.35;;;3.05;;
8361;SDS011;4218;48.326;14.304;2022-08-19T14:59:15;3.58;;;3.30;;
8361;SDS011;4218;48.326;14.304;2022-08-19T15:01:40;2.90;;;2.70;;
8361;SDS011;4218;48.326;14.304;2022-08-19T15:04:06;4.88;;;3.00;;
8361;SDS011;4218;48.326;14.304;2022-08-19T15:06:31;3.42;;;3.13;;
8361;SDS011;4218;48.326;14.304;2022-08-19T15:08:57;3.60;;;3.33;;
8361;SDS011;4218;48.326;14.304;2022-08-19T15:11:24;3.33;;;3.03;;
8361;SDS011;4218;48.326;14.304;2022-08-19T15:13:53;4.10;;;3.33;;
8361;SDS011;4218;48.326;14.304;2022-08-19T15:16:20;3.10;;;2.88;;
8361;SDS011;4218;48.326;14.304;2022-08-19T15:18:50;3.20;;;2.90;;
8361;SDS011;4218;48.326;14.304;2022-08-19T15:21:18;3.72;;;3.40;;
8361;SDS011;4218;48.326;14.304;2022-08-19T15:23:47;3.28;;;2.97;;
8361;SDS011;4218;48.326;14.304;2022-08-19T15:26:14;3.00;;;2.80;;
8361;SDS011;4218;48.326;14.304;2022-08-19T15:28:41;7.40;;;2.83;;
8361;SDS011;4218;48.326;14.304;2022-08-19T15:31:06;3.10;;;2.90;;
8361;SDS011;4218;48.326;14.304;2022-08-19T15:33:33;3.83;;;2.72;;
8361;SDS011;4218;48.326;14.304;2022-08-19T15:36:01;3.25;;;2.00;;